Time;durP1;ratioP1;P1;durP2;ratioP2;P2;SDS_P1;SDS_P2;PMS_P1;PMS_P2;Temp;Humidity;BMP_temperature;BMP_pressure;BME280_temperature;BME280_humidity;BME280_pressure;Samples;Min_cycle;Max_cycle;Signal;HPM_P1;HPM_P2
2021/12/10 00:01:44;;;;;;;39.35;20.92;;;;;;;2.20;80.58;100772.80;1644213;84;25669;-59
2021/12/10 00:04:12;;;;;;;35.88;20.12;;;;;;;2.24;80.42;100777.47;1672615;83;27429;-59
2021/12/10 00:06:44;;;;;;;30.72;19.98;;;;;;;2.28;80.45;100780.36;1671942;84;25784;-59
2021/12/10 00:09:17;;;;;;;37.20;19.50;;;;;;;2.33;80.73;100763.70;1691772;84;25705;-60
2021/12/10 00:12:00;;;;;;;29.82;18.35;;;;;;;2.38;80.77;100782.03;1681260;84;25985;-60
2021/12/10 00:14:30;;;;;;;32.73;18.02;;;;;;;2.44;80.77;100780.36;1685393;84;25693;-60
2021/12/10 00:16:59;;;;;;;31.15;18.50;;;;;;;2.50;80.73;100779.56;1697325;83;27519;-60
2021/12/10 00:19:35;;;;;;;30.43;17.87;;;;;;;2.56;80.76;100778.38;1720693;82;25899;-60
2021/12/10 00:21:59;;;;;;;36.58;19.55;;;;;;;2.63;80.75;100776.24;1710524;83;25950;-60
2021/12/10 00:24:29;;;;;;;31.50;17.87;;;;;;;2.70;80.82;100766.98;1695469;84;25917;-60
2021/12/10 00:26:59;;;;;;;32.20;18.42;;;;;;;2.76;80.85;100756.00;1697120;82;25849;-60
2021/12/10 00:29:27;;;;;;;30.30;18.85;;;;;;;2.81;80.81;100763.72;1705530;83;28108;-59
2021/12/10 00:32:02;;;;;;;34.90;19.35;;;;;;;2.85;80.60;100778.56;1706775;82;25711;-58
2021/12/10 00:34:42;;;;;;;29.63;18.23;;;;;;;2.90;80.69;100776.48;1692109;83;25920;-59
2021/12/10 00:37:13;;;;;;;33.92;18.12;;;;;;;2.97;80.72;100782.32;1687618;83;26456;-60
2021/12/10 00:39:49;;;;;;;34.10;17.90;;;;;;;2.98;80.42;100769.42;1668243;84;25723;-60
2021/12/10 00:42:21;;;;;;;32.80;19.70;;;;;;;2.99;80.33;100777.78;1653854;86;27518;-60
2021/12/10 00:44:49;;;;;;;35.65;17.60;;;;;;;3.04;80.57;100775.70;1661236;85;25686;-60
2021/12/10 00:47:17;;;;;;;29.87;18.92;;;;;;;3.16;80.89;100769.31;1660865;84;25812;-60
2021/12/10 00:49:45;;;;;;;31.97;19.80;;;;;;;3.24;80.79;100761.74;1673673;84;25874;-60
2021/12/10 00:52:15;;;;;;;36.23;20.77;;;;;;;3.30;80.85;100756.06;1691249;84;25857;-60
2021/12/10 00:54:43;;;;;;;35.00;20.55;;;;;;;3.37;80.82;100756.08;1689343;84;28207;-60
2021/12/10 00:57:11;;;;;;;38.55;23.02;;;;;;;3.40;80.44;100750.59;1685823;83;25850;-59
2021/12/10 00:59:41;;;;;;;40.38;21.65;;;;;;;3.38;79.90;100743.16;1692707;83;25701;-60
2021/12/10 01:02:11;;;;;;;39.25;21.87;;;;;;;3.36;79.73;100742.88;1685376;83;25955;-60
2021/12/10 01:04:43;;;;;;;39.90;21.97;;;;;;;3.29;79.69;100745.91;1670453;84;25831;-60
2021/12/10 01:07:15;;;;;;;42.03;21.80;;;;;;;3.24;79.59;100744.47;1672678;84;28260;-60
2021/12/10 01:09:47;;;;;;;45.15;23.95;;;;;;;3.21;79.35;100730.88;1673098;84;25540;-60
2021/12/10 01:12:25;;;;;;;44.45;24.50;;;;;;;3.19;79.51;100734.55;1685519;83;25559;-58
2021/12/10 01:26:53;;;;;;;45.90;23.50;;;;;;;3.04;79.72;100730.52;1676939;84;25839;-59
2021/12/10 01:28:24;;;;;;;37.48;21.55;;;;;;;3.03;79.96;100714.19;1673644;84;25824;-59
2021/12/10 01:30:51;;;;;;;42.03;22.42;;;;;;;3.04;80.29;100701.28;1687499;84;25781;-59
2021/12/10 01:33:19;;;;;;;36.63;21.93;;;;;;;3.06;80.40;100702.52;1687067;83;27496;-59
2021/12/10 01:35:53;;;;;;;39.45;21.48;;;;;;;3.08;80.80;100705.95;1717318;83;25871;-59
2021/12/10 01:38:21;;;;;;;45.50;22.93;;;;;;;3.10;80.83;100704.91;1691025;82;25792;-60
2021/12/10 01:40:54;;;;;;;38.33;22.05;;;;;;;3.11;81.37;100694.66;1659025;85;25932;-59
2021/12/10 01:43:24;;;;;;;42.03;24.07;;;;;;;3.18;81.56;100698.31;1677235;83;25851;-60
2021/12/10 01:46:05;;;;;;;43.63;23.25;;;;;;;3.18;81.67;100694.32;1688509;84;28226;-60
2021/12/10 01:48:33;;;;;;;47.38;25.80;;;;;;;3.21;81.96;100691.00;1679299;83;25748;-60
2021/12/10 01:51:02;;;;;;;44.77;23.60;;;;;;;3.24;81.81;100676.18;1689082;83;25764;-59
2021/12/10 01:53:33;;;;;;;39.88;23.87;;;;;;;3.26;82.17;100678.28;1685436;83;25856;-59
2021/12/10 01:56:05;;;;;;;41.13;22.52;;;;;;;3.25;81.86;100677.89;1687644;83;25997;-59
2021/12/10 01:58:33;;;;;;;41.45;22.37;;;;;;;3.28;82.04;100680.38;1686365;84;28200;-59
2021/12/10 02:01:05;;;;;;;37.67;21.55;;;;;;;3.32;81.97;100657.13;1684381;84;25873;-59
2021/12/10 02:03:32;;;;;;;40.65;21.95;;;;;;;3.33;81.85;100657.97;1678712;83;25757;-59
2021/12/10 02:05:59;;;;;;;38.15;21.95;;;;;;;3.34;81.84;100651.25;1669799;84;25844;-60
2021/12/10 02:08:27;;;;;;;45.70;23.10;;;;;;;3.39;81.92;100649.15;1669488;84;25836;-59
2021/12/10 02:10:54;;;;;;;40.65;21.33;;;;;;;3.48;82.10;100642.89;1667377;84;28246;-59
2021/12/10 02:13:21;;;;;;;40.70;22.55;;;;;;;3.55;82.15;100632.25;1664278;83;25931;-60
2021/12/10 02:15:49;;;;;;;40.25;21.97;;;;;;;3.63;82.30;100627.31;1679781;83;25873;-60
2021/12/10 02:18:16;;;;;;;36.65;20.48;;;;;;;3.74;82.17;100628.84;1690127;83;25910;-60
2021/12/10 02:20:59;;;;;;;37.88;21.10;;;;;;;3.79;81.84;100624.55;1690971;83;25788;-60
2021/12/10 02:23:29;;;;;;;42.67;22.00;;;;;;;3.85;81.79;100624.66;1689766;83;27471;-60
2021/12/10 02:25:57;;;;;;;38.65;22.15;;;;;;;3.88;81.35;100618.66;1677994;82;25967;-59
2021/12/10 02:28:25;;;;;;;42.53;23.83;;;;;;;3.89;81.33;100620.37;1703738;83;25669;-59
2021/12/10 02:30:52;;;;;;;45.63;23.15;;;;;;;3.94;81.82;100621.41;1659928;84;26437;-60
2021/12/10 02:33:19;;;;;;;37.85;21.85;;;;;;;4.01;82.08;100613.41;1667144;84;25919;-59
2021/12/10 02:35:45;;;;;;;43.35;23.87;;;;;;;4.10;82.10;100613.77;1659896;85;27484;-59
2021/12/10 02:38:17;;;;;;;40.67;23.02;;;;;;;4.11;81.39;100601.71;1708471;83;25913;-59
2021/12/10 02:40:45;;;;;;;46.35;24.72;;;;;;;4.11;81.18;100597.72;1714124;83;25888;-59
2021/12/10 02:43:14;;;;;;;45.73;25.60;;;;;;;4.14;81.19;100603.31;1709238;83;25812;-59
2021/12/10 02:45:45;;;;;;;39.98;22.75;;;;;;;4.14;81.12;100600.16;1696687;83;25755;-59
2021/12/10 02:48:12;;;;;;;44.93;24.45;;;;;;;4.12;80.85;100602.55;1700222;83;26855;-59
2021/12/10 02:50:40;;;;;;;58.55;25.20;;;;;;;4.05;80.49;100594.09;1691351;84;26364;-59
2021/12/10 02:53:09;;;;;;;45.75;23.65;;;;;;;4.01;80.64;100597.44;1679277;84;25821;-60
2021/12/10 02:55:37;;;;;;;50.00;25.27;;;;;;;3.99;80.65;100594.02;1710154;83;25828;-59
2021/12/10 02:58:09;;;;;;;46.65;24.27;;;;;;;3.97;80.63;100598.60;1707893;83;25788;-60
2021/12/10 03:00:41;;;;;;;54.98;27.58;;;;;;;3.92;80.20;100596.69;1707011;82;28279;-59
2021/12/10 03:03:08;;;;;;;56.85;28.47;;;;;;;3.87;80.20;100587.67;1674517;82;26187;-60
2021/12/10 03:05:35;;;;;;;50.23;26.90;;;;;;;3.84;80.19;100583.02;1672936;84;25623;-59
2021/12/10 03:08:03;;;;;;;59.77;31.60;;;;;;;3.79;80.09;100584.64;1706054;83;25791;-59
2021/12/10 03:10:33;;;;;;;58.00;29.40;;;;;;;3.78;80.09;100583.42;1703285;83;25927;-59
2021/12/10 03:13:01;;;;;;;55.17;28.10;;;;;;;3.77;80.38;100571.91;1672518;83;27579;-59
2021/12/10 03:15:30;;;;;;;47.50;25.60;;;;;;;3.80;80.62;100568.22;1678120;82;25786;-59
2021/12/10 03:18:00;;;;;;;50.52;26.17;;;;;;;3.80;80.72;100562.89;1669878;84;25975;-59
2021/12/10 03:20:30;;;;;;;47.38;25.20;;;;;;;3.81;81.11;100557.95;1669448;83;26483;-60
2021/12/10 03:22:59;;;;;;;55.20;26.10;;;;;;;3.83;81.16;100556.91;1683625;84;25818;-60
2021/12/10 03:25:27;;;;;;;46.02;23.98;;;;;;;3.87;81.97;100562.39;1695739;84;27459;-60
2021/12/10 03:27:54;;;;;;;45.23;24.98;;;;;;;3.85;82.09;100544.81;1658276;84;25876;-59
2021/12/10 03:30:26;;;;;;;44.23;23.60;;;;;;;3.86;82.07;100542.53;1673349;84;25994;-60
2021/12/10 03:32:54;;;;;;;44.08;22.13;;;;;;;3.88;82.71;100543.30;1674955;84;25784;-60
2021/12/10 03:35:28;;;;;;;48.50;22.95;;;;;;;3.94;83.43;100530.08;1670109;84;25765;-59
2021/12/10 03:37:59;;;;;;;;;;;;;;;3.97;84.34;100515.22;1671681;85;27594;-60
2021/12/10 03:40:27;;;;;;;43.38;23.50;;;;;;;3.96;84.87;100530.34;1659386;86;25742;-59
2021/12/10 03:42:58;;;;;;;48.48;23.22;;;;;;;4.01;85.06;100530.89;1676544;84;25915;-60
2021/12/10 03:45:26;;;;;;;54.75;25.12;;;;;;;4.07;85.11;100525.19;1678680;83;25803;-59
2021/12/10 03:47:54;;;;;;;44.20;23.38;;;;;;;4.12;85.31;100520.89;1682249;83;25831;-59
2021/12/10 03:50:28;;;;;;;47.65;23.30;;;;;;;4.18;85.61;100511.63;1684957;84;29643;-59
2021/12/10 03:52:56;;;;;;;42.95;23.55;;;;;;;4.23;85.75;100518.84;1678064;83;25497;-59
2021/12/10 03:55:24;;;;;;;45.10;23.00;;;;;;;4.29;85.85;100511.77;1693921;84;25758;-59
2021/12/10 03:57:54;;;;;;;45.63;23.98;;;;;;;4.31;85.87;100517.86;1693999;83;25854;-59
2021/12/10 04:00:25;;;;;;;46.48;23.83;;;;;;;4.33;85.57;100527.94;1697016;83;25757;-59
2021/12/10 04:02:56;;;;;;;51.58;24.43;;;;;;;4.39;85.47;100525.35;1680672;84;45525;-59
2021/12/10 04:05:24;;;;;;;43.20;22.05;;;;;;;4.43;85.49;100513.52;1661943;84;25751;-60
2021/12/10 04:07:52;;;;;;;41.77;22.40;;;;;;;4.49;85.76;100516.25;1691193;84;25815;-59
2021/12/10 04:10:20;;;;;;;46.75;23.20;;;;;;;4.50;85.84;100518.80;1682458;83;25808;-59
2021/12/10 04:12:48;;;;;;;43.90;21.45;;;;;;;4.52;86.28;100520.05;1684853;83;25552;-60
2021/12/10 04:15:20;;;;;;;40.95;22.70;;;;;;;4.57;86.82;100515.25;1685084;83;27471;-59
2021/12/10 04:17:48;;;;;;;44.85;20.68;;;;;;;4.56;86.91;100515.37;1684359;83;25750;-60
2021/12/10 04:20:19;;;;;;;37.63;21.00;;;;;;;4.56;87.03;100522.87;1689419;84;25543;-60
2021/12/10 04:22:47;;;;;;;45.20;22.00;;;;;;;4.57;86.68;100519.25;1692613;83;25808;-60
2021/12/10 04:25:19;;;;;;;44.65;24.10;;;;;;;4.61;86.43;100518.09;1682265;83;25864;-60
2021/12/10 04:27:49;;;;;;;41.92;22.70;;;;;;;4.68;86.61;100516.72;1688544;84;27542;-60
2021/12/10 04:30:17;;;;;;;41.48;21.73;;;;;;;4.75;86.49;100520.28;1689575;83;27285;-59
2021/12/10 04:32:46;;;;;;;45.48;22.30;;;;;;;4.80;86.60;100511.48;1659076;84;25759;-60
2021/12/10 04:35:14;;;;;;;51.65;21.20;;;;;;;4.84;86.31;100494.34;1631955;87;25851;-60
2021/12/10 04:37:42;;;;;;;51.75;25.75;;;;;;;4.88;86.13;100497.17;1636830;86;25698;-60
2021/12/10 04:40:11;;;;;;;41.40;21.95;;;;;;;4.89;86.15;100480.20;1635180;87;27531;-59
2021/12/10 04:42:38;;;;;;;37.33;20.15;;;;;;;4.90;86.00;100491.73;1670027;82;26097;-58
2021/12/10 04:45:08;;;;;;;47.95;21.17;;;;;;;4.94;86.35;100498.53;1680359;84;25681;-59
2021/12/10 04:47:35;;;;;;;47.88;24.05;;;;;;;4.93;85.78;100499.52;1677821;83;25964;-59
2021/12/10 04:50:05;;;;;;;43.02;23.40;;;;;;;4.92;85.70;100500.48;1656884;85;27322;-59
2021/12/10 04:52:34;;;;;;;40.17;22.20;;;;;;;4.91;85.58;100495.61;1659982;84;27503;-59
2021/12/10 04:55:08;;;;;;;37.75;21.30;;;;;;;4.96;85.91;100496.16;1685712;83;25820;-59
2021/12/10 04:57:35;;;;;;;41.00;21.93;;;;;;;5.01;85.88;100492.69;1687674;84;25905;-59
2021/12/10 05:00:07;;;;;;;39.45;21.05;;;;;;;5.03;85.55;100489.90;1682816;83;25819;-59
2021/12/10 05:02:36;;;;;;;38.83;21.70;;;;;;;5.09;85.61;100487.29;1682214;83;25777;-59
2021/12/10 05:05:08;;;;;;;37.60;21.15;;;;;;;5.09;85.36;100480.16;1665523;85;27480;-59
2021/12/10 05:07:37;;;;;;;42.10;25.60;;;;;;;5.12;85.31;100476.42;1666710;84;25836;-59
2021/12/10 05:10:08;;;;;;;49.27;27.17;;;;;;;5.19;85.63;100474.17;1682701;83;25875;-59
2021/12/10 05:12:36;;;;;;;52.53;31.70;;;;;;;5.26;85.57;100462.11;1681252;84;26430;-59
2021/12/10 05:15:06;;;;;;;99.55;53.87;;;;;;;5.29;85.29;100471.23;1690432;84;25514;-58
2021/12/10 05:17:34;;;;;;;122.05;62.15;;;;;;;5.32;85.33;100478.53;1690399;84;27546;-59
2021/12/10 05:20:11;;;;;;;120.35;60.17;;;;;;;5.37;85.16;100479.54;1681324;84;26425;-59
2021/12/10 05:22:35;;;;;;;86.78;44.42;;;;;;;5.45;85.25;100474.50;1682540;83;25815;-59
2021/12/10 05:25:04;;;;;;;161.68;72.72;;;;;;;5.48;85.11;100478.76;1685305;83;25867;-59
2021/12/10 05:27:30;;;;;;;81.25;41.33;;;;;;;5.55;85.18;100477.34;1692325;83;26593;-59
2021/12/10 05:29:57;;;;;;;122.45;56.80;;;;;;;5.61;85.40;100475.55;1666752;83;27488;-59
2021/12/10 05:32:25;;;;;;;155.30;67.82;;;;;;;5.69;85.46;100481.69;1704032;83;25870;-59
2021/12/10 05:34:54;;;;;;;89.32;43.25;;;;;;;5.66;84.76;100465.88;1674288;84;25746;-59
2021/12/10 05:37:21;;;;;;;55.67;29.25;;;;;;;5.61;84.23;100479.56;1667594;84;25925;-59
2021/12/10 05:39:49;;;;;;;48.87;29.30;;;;;;;5.56;83.86;100490.22;1669424;84;26168;-59
2021/12/10 05:42:16;;;;;;;48.98;25.55;;;;;;;5.53;83.64;100478.42;1652370;86;27497;-59
2021/12/10 05:44:43;;;;;;;45.95;24.95;;;;;;;5.44;83.29;100481.27;1671360;84;25937;-60
2021/12/10 05:47:10;;;;;;;56.20;28.90;;;;;;;5.35;83.15;100490.80;1660677;84;25858;-59
2021/12/10 05:49:37;;;;;;;60.60;29.85;;;;;;;5.25;83.50;100491.91;1670698;83;25787;-60
2021/12/10 05:52:06;;;;;;;56.37;28.57;;;;;;;5.16;83.26;100482.77;1672238;84;27320;-60
2021/12/10 05:54:34;;;;;;;56.68;27.70;;;;;;;5.08;83.41;100488.24;1680988;83;27477;-60
2021/12/10 05:57:02;;;;;;;62.08;32.30;;;;;;;5.00;83.58;100481.64;1669162;84;26623;-60
2021/12/10 05:59:30;;;;;;;56.50;28.50;;;;;;;4.95;83.47;100476.25;1664144;83;25862;-60
2021/12/10 06:01:58;;;;;;;56.53;29.50;;;;;;;4.91;83.55;100482.28;1677690;83;25955;-60
2021/12/10 06:04:27;;;;;;;54.38;28.52;;;;;;;4.90;83.78;100487.23;1703322;82;25821;-60
2021/12/10 06:06:56;;;;;;;60.28;29.35;;;;;;;4.89;83.75;100483.36;1667469;83;28172;-59
2021/12/10 06:09:24;;;;;;;57.05;28.75;;;;;;;4.87;83.71;100488.80;1682772;83;25922;-60
2021/12/10 06:11:52;;;;;;;54.93;26.12;;;;;;;4.88;83.84;100481.19;1694588;83;25764;-60
2021/12/10 06:14:20;;;;;;;58.52;29.85;;;;;;;4.92;84.08;100472.49;1689503;83;25833;-60
2021/12/10 06:16:47;;;;;;;61.10;30.50;;;;;;;4.90;83.89;100491.23;1640733;86;25965;-60
2021/12/10 06:19:14;;;;;;;54.40;27.30;;;;;;;4.91;83.92;100490.28;1664326;84;27494;-60
2021/12/10 06:21:41;;;;;;;61.50;30.82;;;;;;;4.96;84.13;100487.30;1671452;84;25753;-60
2021/12/10 06:24:08;;;;;;;66.12;30.15;;;;;;;4.96;83.91;100480.63;1664244;84;25808;-60
2021/12/10 06:26:36;;;;;;;51.00;28.02;;;;;;;4.98;83.99;100490.22;1661325;85;25677;-59
2021/12/10 06:29:04;;;;;;;56.05;30.30;;;;;;;5.03;84.22;100491.73;1633939;85;25884;-60
2021/12/10 06:31:32;;;;;;;58.75;27.95;;;;;;;5.08;84.26;100485.58;1696806;83;27478;-59
2021/12/10 06:34:00;;;;;;;57.83;29.20;;;;;;;5.14;84.17;100479.84;1675676;83;25948;-59
2021/12/10 06:36:28;;;;;;;58.63;27.80;;;;;;;5.12;83.83;100475.92;1673749;83;26348;-59
2021/12/10 06:38:57;;;;;;;55.95;26.68;;;;;;;5.18;83.91;100477.30;1684433;83;25786;-59
2021/12/10 06:41:24;;;;;;;56.35;26.17;;;;;;;5.19;83.77;100464.34;1681709;83;25466;-59
2021/12/10 06:43:51;;;;;;;54.98;29.00;;;;;;;5.17;83.50;100462.27;1678916;85;27532;-59
2021/12/10 06:46:18;;;;;;;51.80;27.98;;;;;;;5.16;83.78;100461.89;1679864;85;25729;-59
2021/12/10 06:48:45;;;;;;;62.15;26.02;;;;;;;5.16;83.96;100464.55;1686823;84;25757;-60
2021/12/10 06:51:18;;;;;;;52.65;25.12;;;;;;;5.19;84.18;100453.68;1697858;83;26433;-60
2021/12/10 06:53:47;;;;;;;55.43;27.07;;;;;;;5.25;84.35;100455.91;1662800;85;26251;-59
2021/12/10 06:56:16;;;;;;;51.98;27.73;;;;;;;5.30;84.51;100461.78;1697313;83;27535;-59
2021/12/10 06:58:43;;;;;;;54.88;27.27;;;;;;;5.41;84.83;100457.49;1709581;83;25934;-59
2021/12/10 07:01:18;;;;;;;53.38;27.27;;;;;;;5.48;84.62;100461.41;1659728;86;25790;-60
2021/12/10 07:03:46;;;;;;;54.88;27.40;;;;;;;5.57;84.80;100454.08;1676550;83;25873;-59
2021/12/10 07:06:13;;;;;;;48.83;26.37;;;;;;;5.70;84.98;100454.50;1657990;84;25496;-59
2021/12/10 07:08:42;;;;;;;50.30;25.82;;;;;;;5.82;84.88;100458.11;1662429;83;27509;-59
2021/12/10 07:11:14;;;;;;;60.00;27.90;;;;;;;5.89;84.05;100458.86;1685205;83;25478;-59
2021/12/10 07:13:45;;;;;;;53.40;27.90;;;;;;;5.87;83.95;100458.11;1684776;83;25780;-59
2021/12/10 07:16:13;;;;;;;57.80;30.75;;;;;;;5.89;83.60;100460.69;1671220;84;26641;-58
2021/12/10 07:18:40;;;;;;;66.17;30.23;;;;;;;5.85;83.14;100450.72;1678475;83;25851;-59
2021/12/10 07:21:08;;;;;;;60.20;29.15;;;;;;;5.80;82.82;100455.53;1683860;83;27826;-59
2021/12/10 07:23:37;;;;;;;55.38;29.92;;;;;;;5.80;83.17;100448.39;1670344;84;25852;-59
2021/12/10 07:26:05;;;;;;;58.33;29.85;;;;;;;5.77;82.40;100449.10;1700364;82;25911;-60
2021/12/10 07:28:33;;;;;;;49.90;28.35;;;;;;;5.67;82.34;100445.40;1696269;83;25837;-60
2021/12/10 07:31:01;;;;;;;57.23;29.02;;;;;;;5.64;82.65;100438.48;1672868;84;25962;-59
2021/12/10 07:33:28;;;;;;;47.50;25.92;;;;;;;5.59;82.59;100451.28;1668347;84;28223;-59
2021/12/10 07:35:56;;;;;;;49.88;26.77;;;;;;;5.59;82.61;100455.29;1687279;83;25788;-59
2021/12/10 07:38:23;;;;;;;44.48;26.20;;;;;;;5.58;82.86;100450.91;1660497;84;25873;-59
2021/12/10 07:40:51;;;;;;;52.70;26.40;;;;;;;5.59;83.31;100445.95;1677532;83;25802;-60
2021/12/10 07:43:19;;;;;;;45.10;24.75;;;;;;;5.61;83.42;100448.03;1688894;82;25885;-59
2021/12/10 07:45:51;;;;;;;42.75;24.80;;;;;;;5.62;83.48;100447.91;1666122;84;27589;-59
2021/12/10 07:48:22;;;;;;;43.33;24.07;;;;;;;5.69;83.77;100456.33;1684946;83;25775;-59
2021/12/10 07:50:58;;;;;;;48.75;23.30;;;;;;;5.78;83.99;100453.48;1718153;83;25814;-60
2021/12/10 07:53:28;;;;;;;48.02;25.90;;;;;;;5.80;83.61;100459.53;1695750;82;25996;-60
2021/12/10 07:55:58;;;;;;;49.63;24.70;;;;;;;5.84;83.86;100460.16;1680601;83;25787;-60
2021/12/10 07:58:25;;;;;;;54.98;25.77;;;;;;;5.92;84.33;100450.63;1665067;84;27503;-59
2021/12/10 08:00:54;;;;;;;50.60;24.50;;;;;;;5.98;83.93;100457.80;1666642;84;25880;-59
2021/12/10 08:03:21;;;;;;;48.28;26.00;;;;;;;5.98;84.00;100456.46;1674398;84;25447;-59
2021/12/10 08:05:51;;;;;;;44.45;24.07;;;;;;;6.00;83.79;100457.24;1657209;84;25890;-59
2021/12/10 08:08:18;;;;;;;45.73;24.95;;;;;;;6.03;83.81;100453.02;1645039;84;25941;-59
2021/12/10 08:10:47;;;;;;;49.45;25.02;;;;;;;6.10;84.09;100455.59;1661995;83;27491;-59
2021/12/10 08:13:17;;;;;;;46.18;24.47;;;;;;;6.18;84.03;100457.20;1665794;84;25791;-59
2021/12/10 08:15:44;;;;;;;42.90;22.27;;;;;;;6.19;83.70;100445.55;1694775;83;25894;-59
2021/12/10 08:18:11;;;;;;;37.93;20.20;;;;;;;6.25;83.98;100445.58;1687587;84;26519;-59
2021/12/10 08:20:39;;;;;;;42.93;22.52;;;;;;;6.31;84.05;100441.09;1689829;84;25849;-59
2021/12/10 08:23:06;;;;;;;41.30;20.75;;;;;;;6.30;83.95;100435.38;1670249;83;28268;-62
2021/12/10 08:25:34;;;;;;;41.20;23.62;;;;;;;6.34;83.79;100442.20;1661396;84;25834;-60
2021/12/10 08:28:04;;;;;;;37.85;21.02;;;;;;;6.36;83.96;100435.40;1690817;83;25870;-60
2021/12/10 08:30:33;;;;;;;39.23;21.05;;;;;;;6.37;83.97;100431.77;1670290;84;26492;-59
2021/12/10 08:33:01;;;;;;;40.52;21.48;;;;;;;6.39;84.24;100425.33;1707068;83;26270;-59
2021/12/10 08:35:31;;;;;;;37.35;22.02;;;;;;;6.40;84.03;100429.70;1692480;83;27513;-60
2021/12/10 08:38:02;;;;;;;36.53;20.08;;;;;;;6.49;84.52;100425.95;1676488;83;25751;-60
2021/12/10 08:40:34;;;;;;;36.25;20.10;;;;;;;6.57;84.40;100432.89;1688799;82;25818;-59
2021/12/10 08:43:01;;;;;;;38.73;20.17;;;;;;;6.66;84.62;100426.84;1702128;82;25779;-60
2021/12/10 08:45:31;;;;;;;43.42;22.00;;;;;;;6.76;84.86;100408.74;1688754;82;25503;-60
2021/12/10 08:47:59;;;;;;;36.48;20.10;;;;;;;6.87;84.87;100406.92;1668602;84;27482;-60
2021/12/10 08:50:28;;;;;;;35.95;20.23;;;;;;;6.96;84.87;100404.02;1722094;82;25831;-59
2021/12/10 08:53:00;;;;;;;36.88;20.82;;;;;;;7.05;84.88;100397.06;1719831;82;25910;-60
2021/12/10 08:55:30;;;;;;;41.25;21.45;;;;;;;7.11;84.31;100385.90;1707690;82;25862;-60
2021/12/10 08:57:58;;;;;;;47.95;21.70;;;;;;;7.13;84.06;100385.77;1677471;83;25898;-59
2021/12/10 09:00:27;;;;;;;38.92;22.05;;;;;;;7.20;84.62;100374.45;1690077;83;27558;-59
2021/12/10 09:02:56;;;;;;;39.33;22.62;;;;;;;7.28;84.73;100372.48;1690787;82;25842;-61
2021/12/10 09:05:26;;;;;;;49.75;21.40;;;;;;;7.34;84.58;100359.09;1690849;83;25968;-59
2021/12/10 09:07:53;;;;;;;47.03;20.20;;;;;;;7.39;84.65;100374.30;1689606;83;25927;-60
2021/12/10 09:10:24;;;;;;;37.80;19.40;;;;;;;7.44;84.98;100372.08;1687703;82;26417;-59
2021/12/10 09:12:53;;;;;;;34.90;17.80;;;;;;;7.54;85.34;100361.45;1693347;83;27497;-59
2021/12/10 09:15:23;;;;;;;39.78;20.52;;;;;;;7.67;85.74;100354.59;1689106;84;26145;-59
2021/12/10 09:17:52;;;;;;;57.78;24.12;;;;;;;7.80;86.31;100357.97;1690198;83;25880;-59
2021/12/10 09:20:25;;;;;;;48.87;22.13;;;;;;;7.93;86.25;100345.73;1688521;83;26367;-59
2021/12/10 09:22:53;;;;;;;64.77;27.07;;;;;;;8.07;86.46;100344.56;1692642;82;26006;-59
2021/12/10 09:25:21;;;;;;;69.07;26.20;;;;;;;8.25;86.37;100335.42;1689773;83;28770;-59
2021/12/10 09:27:48;;;;;;;61.08;23.62;;;;;;;8.40;86.01;100329.73;1650291;85;25889;-58
2021/12/10 09:30:19;;;;;;;42.30;17.02;;;;;;;8.58;86.49;100321.94;1656352;84;25798;-59
2021/12/10 09:32:47;;;;;;;31.70;14.18;;;;;;;8.73;86.69;100326.45;1684950;83;25791;-60
2021/12/10 09:35:18;;;;;;;29.98;13.90;;;;;;;8.84;86.15;100331.73;1684980;83;25901;-59
2021/12/10 09:37:47;;;;;;;27.58;12.60;;;;;;;8.99;86.32;100317.92;1662448;84;27490;-59
2021/12/10 09:40:19;;;;;;;19.80;10.65;;;;;;;9.15;86.16;100312.88;1673861;83;26065;-59
2021/12/10 09:42:48;;;;;;;25.52;11.45;;;;;;;9.36;86.11;100318.16;1689680;83;25826;-59
2021/12/10 09:45:19;;;;;;;23.60;10.98;;;;;;;9.61;85.81;100318.59;1685131;84;26466;-59
2021/12/10 09:47:48;;;;;;;25.92;10.05;;;;;;;10.03;85.26;100310.72;1683654;83;25496;-59
2021/12/10 09:50:16;;;;;;;24.47;13.10;;;;;;;10.82;85.24;100302.42;1701642;83;27479;-59
2021/12/10 09:52:44;;;;;;;30.10;12.30;;;;;;;11.20;83.94;100294.61;1698945;83;25884;-59
2021/12/10 09:55:15;;;;;;;16.48;7.65;;;;;;;11.32;82.07;100298.44;1677394;83;25545;-59
2021/12/10 09:57:45;;;;;;;16.60;6.67;;;;;;;11.36;80.44;100284.99;1669609;83;26394;-59
2021/12/10 10:00:24;;;;;;;19.10;6.12;;;;;;;11.36;79.08;100274.22;1686693;82;25775;-59
2021/12/10 10:02:51;;;;;;;13.58;5.92;;;;;;;11.44;77.12;100268.91;1665150;84;28270;-59
2021/12/10 10:05:20;;;;;;;15.70;5.47;;;;;;;11.53;75.77;100278.76;1664659;83;25984;-59
2021/12/10 10:07:51;;;;;;;17.87;5.62;;;;;;;11.79;75.79;100284.70;1642060;85;25787;-60
2021/12/10 10:10:17;;;;;;;19.05;6.92;;;;;;;12.02;76.27;100288.28;1687731;84;25888;-60
2021/12/10 10:12:48;;;;;;;14.65;5.55;;;;;;;12.42;76.47;100277.39;1680994;83;26506;-60
2021/12/10 10:15:20;;;;;;;17.87;6.55;;;;;;;12.49;75.22;100277.60;1687157;83;27451;-60
2021/12/10 10:17:48;;;;;;;18.00;6.30;;;;;;;12.44;73.41;100288.05;1672158;84;25786;-60
2021/12/10 10:20:18;;;;;;;15.95;5.78;;;;;;;12.34;73.16;100274.66;1696699;83;25488;-60
2021/12/10 10:22:45;;;;;;;14.18;6.03;;;;;;;12.25;73.37;100272.91;1704261;83;25758;-61
2021/12/10 10:25:14;;;;;;;18.55;6.50;;;;;;;12.20;74.00;100270.70;1698366;83;26276;-60
2021/12/10 10:27:43;;;;;;;16.90;6.45;;;;;;;12.20;73.17;100276.09;1670591;84;28163;-60
2021/12/10 10:30:25;;;;;;;15.70;6.10;;;;;;;12.15;73.25;100267.64;1691867;83;25764;-60
2021/12/10 10:32:55;;;;;;;14.40;6.20;;;;;;;12.11;73.21;100264.42;1676078;83;25753;-60
2021/12/10 10:35:30;;;;;;;15.38;6.15;;;;;;;12.04;73.03;100260.16;1679085;83;26503;-62
2021/12/10 10:38:00;;;;;;;17.57;6.30;;;;;;;11.99;72.65;100273.28;1689414;83;25512;-59
2021/12/10 10:40:32;;;;;;;15.30;6.28;;;;;;;11.89;73.26;100259.84;1665109;85;28174;-60
2021/12/10 10:43:00;;;;;;;20.60;6.95;;;;;;;11.83;73.45;100251.05;1695764;83;25906;-60
2021/12/10 10:45:32;;;;;;;21.10;6.30;;;;;;;11.76;73.81;100268.86;1696212;83;25546;-61
2021/12/10 10:47:59;;;;;;;17.92;5.60;;;;;;;11.69;73.70;100261.06;1659355;84;26417;-61
2021/12/10 10:50:34;;;;;;;24.72;5.40;;;;;;;11.58;73.98;100261.65;1660935;83;25819;-60
2021/12/10 10:53:09;;;;;;;13.15;5.53;;;;;;;11.48;74.40;100255.50;1650840;84;27503;-60
2021/12/10 10:55:46;;;;;;;16.55;6.40;;;;;;;11.42;74.61;100241.31;1636288;86;25706;-62
2021/12/10 10:58:17;;;;;;;17.95;6.65;;;;;;;11.36;75.10;100249.50;1675814;82;25785;-59
2021/12/10 11:01:08;;;;;;;20.10;7.47;;;;;;;11.32;75.73;100244.58;1700638;83;26513;-62
2021/12/10 11:03:42;;;;;;;26.65;9.13;;;;;;;11.35;76.19;100244.25;1704328;83;26069;-61
2021/12/10 11:06:14;;;;;;;29.60;10.13;;;;;;;11.34;76.50;100241.23;1690156;82;27476;-60
2021/12/10 11:08:46;;;;;;;19.65;9.23;;;;;;;11.34;76.85;100239.38;1688275;84;25913;-61
2021/12/10 11:11:18;;;;;;;14.98;8.58;;;;;;;11.35;77.31;100242.42;1692212;83;25797;-61
2021/12/10 11:14:00;;;;;;;22.13;9.20;;;;;;;11.31;77.43;100244.23;1712978;83;26377;-60
2021/12/10 11:16:30;;;;;;;22.42;10.53;;;;;;;11.22;77.28;100237.91;1702105;83;27344;-59
2021/12/10 11:19:06;;;;;;;32.20;11.25;;;;;;;11.18;77.60;100234.67;1707221;83;28151;-61
2021/12/10 11:21:49;;;;;;;26.12;11.73;;;;;;;11.13;77.73;100234.30;1689163;83;25868;-59
2021/12/10 11:24:25;;;;;;;24.05;11.38;;;;;;;11.11;77.87;100229.08;1683084;84;32231;-59
2021/12/10 11:27:05;;;;;;;26.10;10.50;;;;;;;11.09;78.07;100226.17;1687317;84;25844;-61
2021/12/10 11:30:02;;;;;;;21.07;9.70;;;;;;;11.08;78.12;100219.95;1688764;84;25822;-60
2021/12/10 11:32:41;;;;;;;21.45;9.73;;;;;;;11.10;78.25;100214.41;1697983;83;28703;-59
2021/12/10 11:35:34;;;;;;;21.35;8.95;;;;;;;11.13;78.33;100202.00;1718394;83;25811;-60
2021/12/10 11:38:13;;;;;;;27.80;9.05;;;;;;;11.21;78.49;100197.17;1686986;83;25988;-60
2021/12/10 11:41:09;;;;;;;22.55;9.95;;;;;;;11.30;78.43;100194.06;1706227;83;25972;-61